createdAt,value
2019-05-13T00:00:26.896Z,11.77
2019-05-13T00:05:25.933Z,10.43
2019-05-13T00:10:24.335Z,11.77
2019-05-13T00:15:21.610Z,11.17
2019-05-13T00:20:18.715Z,10.47
2019-05-13T00:25:15.659Z,10.63
2019-05-13T00:30:14.502Z,8.53
2019-05-13T00:35:13.938Z,10.00
2019-05-13T00:40:10.685Z,10.73
2019-05-13T00:45:07.929Z,8.97
2019-05-13T00:50:05.342Z,7.63
2019-05-13T00:55:04.245Z,7.90
2019-05-13T01:00:03.553Z,8.17
2019-05-13T01:05:00.707Z,8.40
2019-05-13T01:09:57.898Z,8.27
2019-05-13T01:14:54.877Z,8.10
2019-05-13T01:19:53.765Z,7.63
2019-05-13T01:24:50.979Z,8.77
2019-05-13T01:29:47.979Z,8.00
2019-05-13T01:34:47.134Z,8.13
2019-05-13T01:39:44.245Z,8.17
2019-05-13T01:44:43.642Z,7.87
2019-05-13T01:49:40.220Z,7.60
2019-05-13T01:54:39.412Z,8.43
2019-05-13T01:59:36.737Z,9.03
2019-05-13T02:04:35.500Z,7.13
2019-05-13T02:09:33.654Z,8.03
2019-05-13T02:14:34.085Z,7.97
2019-05-13T02:19:33.453Z,7.47
2019-05-13T02:24:30.100Z,9.83
2019-05-13T02:29:27.094Z,8.70
2019-05-13T02:34:24.404Z,8.07
2019-05-13T02:39:23.236Z,6.40
2019-05-13T02:44:22.525Z,6.30
2019-05-13T02:49:19.210Z,6.00
2019-05-13T02:54:18.065Z,5.87
2019-05-13T02:59:15.287Z,5.70
2019-05-13T03:04:13.114Z,5.33
2019-05-13T03:09:12.757Z,4.43
2019-05-13T03:14:12.855Z,6.00
2019-05-13T03:19:09.174Z,4.13
2019-05-13T03:24:09.008Z,4.40
2019-05-13T03:29:06.122Z,3.73
2019-05-13T03:34:06.755Z,3.87
2019-05-13T03:39:09.727Z,3.97
2019-05-13T03:44:06.706Z,3.23
2019-05-13T03:49:04.968Z,3.17
2019-05-13T03:54:04.089Z,3.13
2019-05-13T03:59:02.690Z,3.23
2019-05-13T04:04:03.068Z,2.80
2019-05-13T04:09:19.548Z,3.20
2019-05-13T04:13:58.098Z,3.13
2019-05-13T04:18:56.840Z,3.33
2019-05-13T04:23:53.920Z,3.40
2019-05-13T04:28:52.921Z,3.60
2019-05-13T04:33:53.094Z,3.50
2019-05-13T04:38:52.803Z,6.67
2019-05-13T04:43:49.460Z,3.10
2019-05-13T04:48:46.551Z,3.17
2019-05-13T04:53:53.303Z,2.63
2019-05-13T04:58:48.787Z,2.83
2019-05-13T05:03:57.296Z,2.70
2019-05-13T05:09:08.463Z,2.50
2019-05-13T05:14:18.732Z,2.40
2019-05-13T05:19:52.530Z,2.17
2019-05-13T05:25:35.570Z,2.10
2019-05-13T05:31:05.197Z,2.20
2019-05-13T05:36:41.520Z,2.10
2019-05-13T05:41:42.190Z,2.07
2019-05-13T05:46:42.498Z,1.80
2019-05-13T05:51:41.781Z,1.63
2019-05-13T05:56:41.487Z,1.97
2019-05-13T06:01:41.882Z,2.30
2019-05-13T06:06:48.058Z,2.40
2019-05-13T06:11:45.143Z,2.43
2019-05-13T06:16:44.311Z,2.53
2019-05-13T06:21:44.941Z,3.47
2019-05-13T06:26:42.950Z,2.63
2019-05-13T06:31:43.921Z,3.03
2019-05-13T06:36:42.643Z,3.30
2019-05-13T06:41:41.655Z,2.70
2019-05-13T06:46:38.990Z,2.80
2019-05-13T06:51:37.410Z,2.50
2019-05-13T06:56:38.248Z,2.70
2019-05-13T07:01:35.820Z,2.80
2019-05-13T07:06:32.933Z,3.77
2019-05-13T07:11:37.163Z,3.33
2019-05-13T07:16:34.380Z,4.87
2019-05-13T07:21:33.485Z,3.33
2019-05-13T07:26:34.863Z,3.83
2019-05-13T07:31:38.173Z,3.30
2019-05-13T07:36:39.247Z,4.10
2019-05-13T07:41:39.499Z,3.43
2019-05-13T07:46:36.408Z,3.93
2019-05-13T07:51:36.270Z,3.47
2019-05-13T07:56:35.222Z,3.80
2019-05-13T08:01:34.266Z,3.50
2019-05-13T08:06:32.336Z,3.43
2019-05-13T08:11:34.948Z,3.60
2019-05-13T08:16:32.115Z,3.97
2019-05-13T08:21:29.182Z,3.73
2019-05-13T08:26:26.128Z,4.30
2019-05-13T08:31:25.434Z,2.90
2019-05-13T08:36:25.717Z,4.17
2019-05-13T08:41:24.755Z,3.77
2019-05-13T08:46:24.884Z,3.80
2019-05-13T08:51:25.946Z,6.57
2019-05-13T08:56:24.823Z,6.23
2019-05-13T09:01:28.077Z,4.87
2019-05-13T09:06:24.910Z,4.43
2019-05-13T09:11:22.274Z,4.80
2019-05-13T09:16:21.432Z,4.60
2019-05-13T09:21:18.233Z,5.90
2019-05-13T09:26:16.924Z,4.30
2019-05-13T09:31:13.980Z,5.23
2019-05-13T09:36:15.874Z,4.00
2019-05-13T09:41:16.106Z,4.77
2019-05-13T09:46:13.084Z,4.03
2019-05-13T09:51:13.240Z,4.93
2019-05-13T09:56:11.913Z,4.57
2019-05-13T10:01:11.465Z,4.70
2019-05-13T10:06:09.547Z,4.03
2019-05-13T10:11:06.692Z,5.47
2019-05-13T10:16:05.523Z,6.03
2019-05-13T10:21:03.382Z,6.20
2019-05-13T10:26:07.806Z,7.10
2019-05-13T10:31:05.215Z,6.50
2019-05-13T10:36:03.880Z,6.17
2019-05-13T10:41:03.251Z,7.53
2019-05-13T10:46:02.625Z,7.60
2019-05-13T10:51:01.972Z,7.30
2019-05-13T10:55:59.155Z,7.60
2019-05-13T11:00:56.309Z,6.43
2019-05-13T11:05:53.571Z,5.00
2019-05-13T11:10:53.020Z,5.63
2019-05-13T11:15:57.554Z,6.33
2019-05-13T11:20:50.442Z,6.93
2019-05-13T11:25:52.269Z,6.23
2019-05-13T11:30:52.067Z,6.67
2019-05-13T11:35:52.100Z,5.57
2019-05-13T11:40:52.305Z,7.37
2019-05-13T11:45:48.320Z,5.57
2019-05-13T11:50:50.150Z,6.17
2019-05-13T11:55:46.061Z,6.97
2019-05-13T12:00:57.641Z,8.87
2019-05-13T12:05:56.922Z,7.57
2019-05-13T12:10:55.418Z,9.63
2019-05-13T12:15:57.376Z,10.73
2019-05-13T12:21:03.155Z,9.30
2019-05-13T12:25:59.182Z,7.90
2019-05-13T12:30:58.047Z,5.87
2019-05-13T12:35:55.258Z,7.73
2019-05-13T12:40:54.251Z,7.27
2019-05-13T12:45:53.594Z,7.13
2019-05-13T12:50:54.112Z,6.03
2019-05-13T12:55:56.702Z,8.13
2019-05-13T13:00:55.195Z,9.70
2019-05-13T13:06:24.636Z,7.27
2019-05-13T13:11:00.893Z,6.23
2019-05-13T13:15:58.487Z,7.00
2019-05-13T13:21:01.193Z,7.13
2019-05-13T13:25:57.177Z,7.80
2019-05-13T13:31:04.270Z,6.90
2019-05-13T13:36:06.114Z,8.13
2019-05-13T13:41:05.703Z,8.83
2019-05-13T13:46:08.564Z,7.07
2019-05-13T13:51:05.862Z,7.83
2019-05-13T13:56:04.869Z,7.13
2019-05-13T14:01:11.750Z,7.90
2019-05-13T14:06:06.187Z,8.07
2019-05-13T14:11:02.065Z,6.90
2019-05-13T14:16:01.900Z,8.10
2019-05-13T14:20:58.161Z,7.53
2019-05-13T14:25:55.195Z,5.30
2019-05-13T14:30:52.347Z,6.10
2019-05-13T14:35:49.383Z,5.90
2019-05-13T14:40:46.888Z,7.17
2019-05-13T14:45:44.173Z,7.57
2019-05-13T14:50:41.763Z,7.33
2019-05-13T14:55:41.777Z,6.80
2019-05-13T15:00:38.593Z,9.00
2019-05-13T15:05:35.916Z,8.53
2019-05-13T15:10:38.246Z,7.20
2019-05-13T15:15:36.018Z,8.13
2019-05-13T15:20:33.375Z,9.07
2019-05-13T15:25:31.427Z,7.03
2019-05-13T15:30:28.699Z,9.37
2019-05-13T15:35:25.862Z,6.67
2019-05-13T15:40:22.844Z,8.13
2019-05-13T15:45:21.317Z,7.47
2019-05-13T15:50:18.529Z,7.10
2019-05-13T15:55:15.531Z,6.83
2019-05-13T16:00:13.200Z,6.30
2019-05-13T16:05:12.003Z,5.40
2019-05-13T16:10:11.291Z,6.40
2019-05-13T16:15:13.137Z,5.07
2019-05-13T16:20:11.153Z,5.60
2019-05-13T16:25:08.362Z,6.37
2019-05-13T16:30:07.264Z,5.40
2019-05-13T16:35:06.456Z,6.13
2019-05-13T16:40:05.551Z,4.50
2019-05-13T16:45:06.418Z,4.90
2019-05-13T16:50:06.943Z,4.57
2019-05-13T16:55:06.590Z,4.37
2019-05-13T17:00:06.529Z,4.77
2019-05-13T17:05:05.386Z,4.70
2019-05-13T17:10:05.080Z,4.67
2019-05-13T17:15:03.754Z,4.03
2019-05-13T17:20:02.384Z,4.23
2019-05-13T17:25:02.505Z,5.23
2019-05-13T17:30:01.927Z,4.93
2019-05-13T17:34:58.422Z,5.07
2019-05-13T17:39:55.537Z,4.67
2019-05-13T17:44:52.499Z,4.03
2019-05-13T17:49:51.984Z,4.57
2019-05-13T17:54:48.616Z,5.80
2019-05-13T17:59:45.744Z,5.53
2019-05-13T18:04:44.557Z,5.27
2019-05-13T18:09:42.457Z,4.70
2019-05-13T18:14:42.165Z,5.53
2019-05-13T18:19:41.985Z,5.50
2019-05-13T18:24:38.933Z,4.40
2019-05-13T18:29:36.403Z,5.73
2019-05-13T18:34:33.591Z,5.10
2019-05-13T18:39:32.263Z,5.70
2019-05-13T18:44:31.493Z,5.43
2019-05-13T18:49:28.712Z,6.23
2019-05-13T18:54:25.754Z,5.70
2019-05-13T18:59:23.258Z,6.63
2019-05-13T19:04:21.773Z,5.97
2019-05-13T19:09:18.929Z,5.20
2019-05-13T19:14:16.475Z,6.37
2019-05-13T19:19:16.978Z,5.60
2019-05-13T19:24:13.586Z,5.90
2019-05-13T19:29:11.501Z,6.23
2019-05-13T19:34:08.771Z,7.13
2019-05-13T19:39:06.581Z,5.73
2019-05-13T19:44:03.561Z,6.67
2019-05-13T19:49:01.727Z,7.80
2019-05-13T19:54:01.084Z,5.67
2019-05-13T19:58:57.961Z,7.07
2019-05-13T20:03:54.993Z,7.87
2019-05-13T20:08:52.059Z,6.60
2019-05-13T20:13:49.009Z,5.87
2019-05-13T20:18:47.941Z,8.00
2019-05-13T20:23:44.984Z,8.60
2019-05-13T20:28:42.349Z,7.00
2019-05-13T20:33:42.290Z,6.67
2019-05-13T20:38:40.598Z,8.23
2019-05-13T20:43:39.368Z,7.43
2019-05-13T20:48:36.364Z,7.60
2019-05-13T20:53:33.315Z,7.40
2019-05-13T20:58:31.900Z,7.10
2019-05-13T21:03:31.599Z,9.90
2019-05-13T21:08:29.067Z,8.10
2019-05-13T21:13:26.189Z,8.67
2019-05-13T21:18:23.296Z,7.00
2019-05-13T21:23:21.745Z,6.43
2019-05-13T21:28:19.028Z,7.37
2019-05-13T21:33:16.067Z,7.77
2019-05-13T21:38:13.111Z,8.47
2019-05-13T21:43:10.178Z,7.30
2019-05-13T21:48:07.259Z,9.20
2019-05-13T21:53:05.300Z,7.97
2019-05-13T21:58:03.319Z,7.73
2019-05-13T22:03:02.085Z,7.70
2019-05-13T22:08:01.551Z,9.00
2019-05-13T22:12:58.307Z,9.27
2019-05-13T22:17:55.376Z,7.23
2019-05-13T22:22:52.370Z,7.80
2019-05-13T22:27:51.724Z,8.13
2019-05-13T22:32:48.429Z,8.00
2019-05-13T22:37:45.971Z,7.13
2019-05-13T22:42:42.947Z,8.73
2019-05-13T22:47:41.779Z,6.87
2019-05-13T22:52:38.871Z,6.83
2019-05-13T22:57:35.894Z,10.87
2019-05-13T23:02:33.478Z,8.23
2019-05-13T23:07:31.562Z,7.23
2019-05-13T23:12:28.629Z,7.20
2019-05-13T23:17:25.675Z,5.90
2019-05-13T23:22:22.647Z,7.83
2019-05-13T23:27:22.041Z,7.93
2019-05-13T23:32:21.314Z,7.13
2019-05-13T23:37:18.808Z,6.70
2019-05-13T23:42:15.804Z,6.67
2019-05-13T23:47:12.824Z,6.57
2019-05-13T23:52:11.701Z,4.63
2019-05-13T23:57:11.494Z,5.63
